Time;durP1;ratioP1;P1;durP2;ratioP2;P2;SDS_P1;SDS_P2;PMS_P1;PMS_P2;Temp;Humidity;BMP_temperature;BMP_pressure;BME280_temperature;BME280_humidity;BME280_pressure;Samples;Min_cycle;Max_cycle;Signal;HPM_P1;HPM_P2
2020/12/10 00:01:35;;;;;;;;;;;27.20;45.80;;;;;;5053383;28;20505;-61
2020/12/10 00:04:01;;;;;;;;;;;27.30;45.90;;;;;;5054264;28;19916;-60
2020/12/10 00:06:26;;;;;;;;;;;27.30;45.90;;;;;;5053913;28;19919;-61
2020/12/10 00:08:52;;;;;;;;;;;27.30;45.80;;;;;;5053685;28;20007;-61
2020/12/10 00:11:17;;;;;;;;;;;27.30;45.70;;;;;;5053670;28;19927;-59
2020/12/10 00:13:43;;;;;;;;;;;27.30;45.70;;;;;;5053486;28;20359;-67
2020/12/10 00:16:12;;;;;;;;;;;27.30;45.60;;;;;;5053854;28;19909;-66
2020/12/10 00:18:38;;;;;;;;;;;27.30;45.70;;;;;;5053608;28;19912;-57
2020/12/10 00:21:04;;;;;;;;;;;27.30;45.60;;;;;;5053559;28;19913;-65
2020/12/10 00:23:29;;;;;;;;;;;27.30;45.60;;;;;;5053398;28;19958;-69
2020/12/10 00:25:55;;;;;;;;;;;27.30;45.80;;;;;;5053223;28;19920;-65
2020/12/10 00:28:20;;;;;;;;;;;27.30;45.70;;;;;;5053240;28;19913;-65
2020/12/10 00:30:46;;;;;;;;;;;27.30;45.70;;;;;;5053367;28;19936;-66
2020/12/10 00:33:11;;;;;;;;;;;27.30;45.50;;;;;;5053394;28;19916;-66
2020/12/10 00:35:37;;;;;;;;;;;27.30;45.50;;;;;;5053383;28;20390;-64
2020/12/10 00:38:02;;;;;;;;;;;27.30;45.70;;;;;;5053428;28;19921;-63
2020/12/10 00:40:28;;;;;;;;;;;27.30;45.50;;;;;;5052833;28;19913;-65
2020/12/10 00:42:53;;;;;;;;;;;27.30;45.40;;;;;;5053263;28;19913;-65
2020/12/10 00:45:19;;;;;;;;;;;27.40;45.40;;;;;;5053563;28;19938;-65
2020/12/10 00:47:44;;;;;;;;;;;27.30;45.40;;;;;;5053233;28;20359;-64
2020/12/10 00:50:09;;;;;;;;;;;27.40;45.40;;;;;;5053018;28;19909;-65
2020/12/10 00:52:35;;;;;;;;;;;27.30;45.40;;;;;;5057183;28;19913;-61
2020/12/10 00:55:00;;;;;;;;;;;27.30;45.40;;;;;;5052848;28;19913;-62
2020/12/10 00:57:26;;;;;;;;;;;27.30;45.20;;;;;;5053008;28;20359;-60
2020/12/10 00:59:51;;;;;;;;;;;27.30;45.20;;;;;;5052780;28;19912;-63
2020/12/10 01:02:17;;;;;;;;;;;27.30;45.30;;;;;;5052123;28;19952;-63
2020/12/10 01:04:42;;;;;;;;;;;27.20;45.30;;;;;;5052875;28;19917;-63
2020/12/10 01:07:08;;;;;;;;;;;27.20;45.40;;;;;;5052826;28;19924;-67
2020/12/10 01:09:33;;;;;;;;;;;27.30;45.30;;;;;;5052689;28;20008;-65
2020/12/10 01:12:01;;;;;;;;;;;27.20;45.40;;;;;;5052445;28;19974;-54
2020/12/10 01:14:27;;;;;;;;;;;27.30;45.30;;;;;;5052884;28;19916;-66
2020/12/10 01:16:52;;;;;;;;;;;27.30;45.20;;;;;;5052957;28;19916;-56
2020/12/10 01:19:18;;;;;;;;;;;27.30;45.30;;;;;;5052831;28;19948;-64
2020/12/10 01:21:43;;;;;;;;;;;27.30;45.30;;;;;;5052481;28;19912;-59
2020/12/10 01:24:09;;;;;;;;;;;27.30;45.20;;;;;;5052812;28;19971;-62
2020/12/10 01:26:35;;;;;;;;;;;27.30;45.10;;;;;;5053027;28;19909;-56
2020/12/10 01:29:01;;;;;;;;;;;27.30;45.20;;;;;;5052655;28;20008;-62
2020/12/10 01:31:27;;;;;;;;;;;27.30;45.20;;;;;;5052607;28;20426;-62
2020/12/10 01:33:52;;;;;;;;;;;27.30;45.10;;;;;;5053002;28;19913;-64
2020/12/10 01:36:24;;;;;;;;;;;27.20;45.00;;;;;;5052613;28;19909;-60
2020/12/10 01:38:50;;;;;;;;;;;27.30;44.90;;;;;;5052283;28;20290;-60
2020/12/10 01:41:15;;;;;;;;;;;27.30;45.00;;;;;;5052326;28;19919;-60
2020/12/10 01:43:41;;;;;;;;;;;27.30;45.20;;;;;;5052578;28;20019;-58
2020/12/10 01:46:06;;;;;;;;;;;27.30;45.20;;;;;;5052569;28;20252;-58
2020/12/10 01:48:32;;;;;;;;;;;27.30;44.90;;;;;;5052386;28;19917;-61
2020/12/10 01:50:58;;;;;;;;;;;27.30;45.00;;;;;;5052368;28;19963;-62
2020/12/10 01:53:23;;;;;;;;;;;27.30;45.00;;;;;;5057634;28;19923;-59
2020/12/10 01:55:49;;;;;;;;;;;27.30;45.00;;;;;;5056415;28;20370;-61
2020/12/10 01:58:14;;;;;;;;;;;27.30;45.00;;;;;;5056295;28;19916;-61
2020/12/10 02:00:40;;;;;;;;;;;27.30;44.90;;;;;;5055842;28;19916;-61
2020/12/10 02:03:05;;;;;;;;;;;27.30;44.90;;;;;;5056266;28;19913;-61
2020/12/10 02:05:30;;;;;;;;;;;27.30;44.80;;;;;;5055901;28;19908;-65
2020/12/10 02:07:56;;;;;;;;;;;27.30;44.90;;;;;;5056012;28;19912;-66
2020/12/10 02:10:21;;;;;;;;;;;27.30;45.00;;;;;;5055815;28;19921;-65
2020/12/10 02:12:47;;;;;;;;;;;27.20;45.00;;;;;;5056146;28;19914;-63
2020/12/10 02:15:12;;;;;;;;;;;27.20;45.00;;;;;;5056328;28;19951;-66
2020/12/10 02:17:38;;;;;;;;;;;27.20;44.90;;;;;;5055530;28;19950;-62
2020/12/10 02:20:04;;;;;;;;;;;27.20;44.80;;;;;;5055863;28;19909;-64
2020/12/10 02:22:30;;;;;;;;;;;27.20;44.70;;;;;;5055682;28;19917;-63
2020/12/10 02:24:55;;;;;;;;;;;27.20;44.80;;;;;;5055550;28;19920;-63
2020/12/10 02:27:21;;;;;;;;;;;27.30;44.80;;;;;;5055773;28;19915;-65
2020/12/10 02:29:46;;;;;;;;;;;27.20;44.60;;;;;;5055806;28;20413;-65
2020/12/10 02:32:12;;;;;;;;;;;27.30;44.70;;;;;;5055389;28;19995;-65
2020/12/10 02:34:37;;;;;;;;;;;27.20;44.70;;;;;;5055974;28;19916;-64
2020/12/10 02:37:02;;;;;;;;;;;27.20;44.60;;;;;;5055344;28;20392;-65
2020/12/10 02:39:28;;;;;;;;;;;27.20;44.70;;;;;;5055287;28;19920;-65
2020/12/10 02:41:54;;;;;;;;;;;27.20;44.70;;;;;;5055575;28;19958;-64
2020/12/10 02:44:19;;;;;;;;;;;27.20;44.70;;;;;;5055583;28;20310;-56
2020/12/10 02:46:45;;;;;;;;;;;27.20;44.80;;;;;;5054996;28;20003;-49
2020/12/10 02:49:10;;;;;;;;;;;27.10;45.00;;;;;;5055836;28;19913;-50
2020/12/10 02:51:36;;;;;;;;;;;27.10;45.00;;;;;;5064551;28;20450;-49
2020/12/10 02:54:01;;;;;;;;;;;27.10;44.80;;;;;;5061000;28;19919;-50
2020/12/10 02:56:26;;;;;;;;;;;27.10;44.70;;;;;;5062016;28;19915;-49
2020/12/10 02:58:52;;;;;;;;;;;27.00;44.60;;;;;;5055376;28;20428;-51
2020/12/10 03:01:17;;;;;;;;;;;27.10;44.60;;;;;;5055123;28;19908;-50
2020/12/10 03:03:45;;;;;;;;;;;27.10;44.50;;;;;;5054780;28;19909;-52
2020/12/10 03:06:10;;;;;;;;;;;27.00;44.40;;;;;;5055306;28;19909;-50
2020/12/10 03:08:36;;;;;;;;;;;27.10;44.40;;;;;;5055314;28;19982;-50
2020/12/10 03:11:02;;;;;;;;;;;27.00;44.40;;;;;;5054805;28;19920;-52
2020/12/10 03:13:27;;;;;;;;;;;27.00;44.40;;;;;;5055238;28;19992;-51
2020/12/10 03:15:53;;;;;;;;;;;27.00;44.40;;;;;;5054919;28;20051;-51
2020/12/10 03:18:18;;;;;;;;;;;27.00;44.30;;;;;;5055105;28;19909;-50
2020/12/10 03:20:44;;;;;;;;;;;27.00;44.30;;;;;;5054625;28;19915;-50
2020/12/10 03:23:09;;;;;;;;;;;27.00;44.40;;;;;;5055141;28;20039;-52
2020/12/10 03:25:35;;;;;;;;;;;26.90;44.40;;;;;;5055107;28;20374;-54
2020/12/10 03:28:00;;;;;;;;;;;26.90;44.40;;;;;;5055019;28;20360;-50
2020/12/10 03:30:25;;;;;;;;;;;26.90;44.30;;;;;;5054494;28;20003;-52
2020/12/10 03:32:51;;;;;;;;;;;26.90;44.30;;;;;;5054813;28;19912;-50
2020/12/10 03:35:16;;;;;;;;;;;26.80;44.30;;;;;;5054520;28;20485;-50
2020/12/10 03:37:42;;;;;;;;;;;26.80;44.30;;;;;;5054447;28;19913;-52
2020/12/10 03:40:07;;;;;;;;;;;26.90;44.30;;;;;;5054547;28;19908;-50
2020/12/10 03:42:33;;;;;;;;;;;26.80;44.20;;;;;;5054679;28;20424;-50
2020/12/10 03:44:58;;;;;;;;;;;26.90;44.20;;;;;;5054470;28;20374;-50
2020/12/10 03:47:24;;;;;;;;;;;26.90;44.20;;;;;;5054374;28;20366;-50
2020/12/10 03:49:50;;;;;;;;;;;26.80;44.10;;;;;;5054422;28;19909;-50
2020/12/10 03:52:16;;;;;;;;;;;26.80;44.80;;;;;;5064020;28;19917;-49
2020/12/10 03:54:41;;;;;;;;;;;26.90;44.20;;;;;;5056680;28;19916;-49
2020/12/10 03:57:06;;;;;;;;;;;26.80;44.10;;;;;;5057931;28;19947;-50
2020/12/10 03:59:32;;;;;;;;;;;26.80;44.10;;;;;;5074290;28;19920;-50
2020/12/10 04:01:57;;;;;;;;;;;26.80;44.10;;;;;;5073965;28;19954;-50
2020/12/10 04:04:23;;;;;;;;;;;26.80;44.10;;;;;;5074330;28;19927;-50
2020/12/10 04:06:48;;;;;;;;;;;26.80;44.10;;;;;;5073812;28;20342;-50
2020/12/10 04:09:14;;;;;;;;;;;26.80;44.00;;;;;;5070465;28;19909;-50
2020/12/10 04:11:39;;;;;;;;;;;26.80;44.70;;;;;;5053631;28;19921;-50
2020/12/10 04:14:05;;;;;;;;;;;26.70;44.10;;;;;;5053822;28;19912;-50
2020/12/10 04:16:31;;;;;;;;;;;26.80;44.10;;;;;;5053076;28;19916;-50
2020/12/10 04:18:56;;;;;;;;;;;26.80;44.00;;;;;;5053967;28;19909;-50
2020/12/10 04:21:21;;;;;;;;;;;26.80;44.00;;;;;;5053523;28;19912;-50
2020/12/10 04:23:47;;;;;;;;;;;26.70;44.00;;;;;;5053953;28;19913;-49
2020/12/10 04:26:15;;;;;;;;;;;26.70;44.10;;;;;;5053780;28;20382;-50
2020/12/10 04:28:41;;;;;;;;;;;26.70;44.10;;;;;;5053811;28;19913;-49
2020/12/10 04:31:07;;;;;;;;;;;26.60;44.00;;;;;;5053462;28;20481;-49
2020/12/10 04:33:32;;;;;;;;;;;26.70;44.10;;;;;;5053708;28;19992;-50
2020/12/10 04:35:58;;;;;;;;;;;26.70;44.10;;;;;;5053379;28;20296;-50
2020/12/10 04:38:23;;;;;;;;;;;26.70;44.10;;;;;;5053679;28;19995;-50
2020/12/10 04:40:49;;;;;;;;;;;26.60;44.00;;;;;;5053399;28;20366;-49
2020/12/10 04:43:15;;;;;;;;;;;26.60;44.00;;;;;;5052206;28;20385;-50
2020/12/10 04:45:41;;;;;;;;;;;26.60;44.00;;;;;;5053349;28;19909;-51
2020/12/10 04:48:06;;;;;;;;;;;26.60;44.20;;;;;;5053543;28;20255;-50
2020/12/10 04:50:35;;;;;;;;;;;26.60;44.10;;;;;;5053266;28;20401;-50
2020/12/10 04:53:00;;;;;;;;;;;26.60;44.20;;;;;;5053117;28;19915;-50
2020/12/10 04:55:26;;;;;;;;;;;26.50;44.10;;;;;;5053416;28;19995;-50
2020/12/10 04:57:52;;;;;;;;;;;26.50;44.20;;;;;;5053450;28;19916;-49
2020/12/10 05:00:18;;;;;;;;;;;26.50;44.10;;;;;;5053000;28;19912;-50
2020/12/10 05:02:47;;;;;;;;;;;26.50;44.10;;;;;;5052964;28;19944;-50
2020/12/10 05:05:32;;;;;;;;;;;26.50;44.00;;;;;;5052993;28;20330;-50
2020/12/10 05:07:58;;;;;;;;;;;26.60;44.00;;;;;;5053252;28;19961;-50
2020/12/10 05:10:23;;;;;;;;;;;26.50;44.00;;;;;;5052653;28;19960;-50
2020/12/10 05:12:49;;;;;;;;;;;26.50;44.00;;;;;;5053053;28;19913;-50
2020/12/10 05:15:18;;;;;;;;;;;26.50;44.10;;;;;;5052907;28;20381;-49
2020/12/10 05:17:44;;;;;;;;;;;26.50;44.00;;;;;;5053187;28;20318;-49
2020/12/10 05:20:09;;;;;;;;;;;26.50;44.00;;;;;;5052970;28;20042;-49
2020/12/10 05:22:42;;;;;;;;;;;26.50;44.00;;;;;;5052843;28;20374;-51
2020/12/10 05:25:07;;;;;;;;;;;26.40;44.10;;;;;;5053196;28;19932;-49
2020/12/10 05:27:33;;;;;;;;;;;26.50;44.10;;;;;;5055195;28;20283;-49
2020/12/10 05:29:58;;;;;;;;;;;26.40;44.00;;;;;;5056806;28;19912;-50
2020/12/10 05:32:34;;;;;;;;;;;26.50;44.00;;;;;;5043937;28;19984;-50
2020/12/10 05:35:20;;;;;;;;;;;26.60;43.90;;;;;;5052487;28;19935;-50
2020/12/10 05:37:45;;;;;;;;;;;26.50;43.80;;;;;;5048828;28;19917;-49
2020/12/10 05:40:11;;;;;;;;;;;26.50;43.80;;;;;;5056466;28;19913;-50
2020/12/10 05:42:37;;;;;;;;;;;26.50;43.80;;;;;;5056918;28;19916;-49
2020/12/10 05:45:09;;;;;;;;;;;26.50;43.80;;;;;;5056683;28;19909;-49
2020/12/10 05:47:38;;;;;;;;;;;26.50;43.70;;;;;;5056652;28;20336;-49
2020/12/10 05:50:04;;;;;;;;;;;26.50;43.80;;;;;;5056513;28;19936;-50
2020/12/10 05:52:29;;;;;;;;;;;26.50;43.80;;;;;;5056486;28;20374;-50
2020/12/10 05:54:55;;;;;;;;;;;26.50;43.80;;;;;;5055234;28;19912;-50
2020/12/10 05:57:20;;;;;;;;;;;26.50;43.70;;;;;;5055412;28;19909;-50
2020/12/10 05:59:46;;;;;;;;;;;26.50;43.80;;;;;;5055471;28;19960;-49
2020/12/10 06:02:11;;;;;;;;;;;26.50;43.80;;;;;;5055877;28;19913;-50
2020/12/10 06:04:37;;;;;;;;;;;26.50;43.80;;;;;;5055209;28;19988;-50
2020/12/10 06:07:02;;;;;;;;;;;26.50;43.80;;;;;;5056246;28;19913;-50
2020/12/10 06:09:28;;;;;;;;;;;26.50;43.70;;;;;;5056193;28;19913;-50
2020/12/10 06:12:11;;;;;;;;;;;26.50;43.70;;;;;;5056007;28;19968;-49
2020/12/10 06:14:56;;;;;;;;;;;26.40;43.70;;;;;;5056093;28;19948;-52
2020/12/10 06:17:21;;;;;;;;;;;26.40;43.70;;;;;;5054653;28;19909;-51
2020/12/10 06:19:47;;;;;;;;;;;26.40;43.80;;;;;;5055838;28;19916;-50
2020/12/10 06:22:31;;;;;;;;;;;26.40;43.80;;;;;;5069888;28;20063;-50
2020/12/10 06:24:57;;;;;;;;;;;26.40;43.90;;;;;;5075872;28;19908;-50
2020/12/10 06:27:23;;;;;;;;;;;26.40;43.80;;;;;;5076101;28;19908;-50
2020/12/10 06:29:48;;;;;;;;;;;26.40;43.90;;;;;;5076147;28;19908;-51
2020/12/10 06:32:14;;;;;;;;;;;26.30;43.80;;;;;;5075649;28;20133;-51
2020/12/10 06:34:44;;;;;;;;;;;26.40;43.80;;;;;;5044759;28;20408;-51
2020/12/10 06:37:15;;;;;;;;;;;26.30;43.70;;;;;;5039951;28;19913;-50
2020/12/10 06:39:41;;;;;;;;;;;26.40;43.80;;;;;;5036260;28;19948;-53
2020/12/10 06:42:06;;;;;;;;;;;26.30;43.80;;;;;;5035645;28;19916;-51
2020/12/10 06:44:32;;;;;;;;;;;26.30;43.80;;;;;;5035878;28;19916;-52
2020/12/10 06:46:58;;;;;;;;;;;26.30;43.70;;;;;;5043683;28;19913;-53
2020/12/10 06:49:28;;;;;;;;;;;26.30;43.70;;;;;;5035582;28;19909;-51
2020/12/10 06:52:10;;;;;;;;;;;26.40;43.70;;;;;;5035386;28;19928;-51
2020/12/10 06:54:35;;;;;;;;;;;26.40;43.70;;;;;;5046143;28;19917;-50
2020/12/10 06:57:07;;;;;;;;;;;26.30;43.70;;;;;;5055194;28;20355;-49
2020/12/10 06:59:35;;;;;;;;;;;26.30;43.70;;;;;;5055133;28;19948;-53
2020/12/10 07:02:15;;;;;;;;;;;26.40;43.70;;;;;;5044710;28;19947;-49
2020/12/10 07:04:50;;;;;;;;;;;26.40;43.70;;;;;;5035491;28;19913;-50
2020/12/10 07:07:23;;;;;;;;;;;26.40;43.50;;;;;;5035486;28;19999;-50
2020/12/10 07:09:52;;;;;;;;;;;26.40;43.60;;;;;;5035031;28;20019;-50
2020/12/10 07:12:25;;;;;;;;;;;26.40;43.60;;;;;;5034826;28;19921;-50
2020/12/10 07:14:51;;;;;;;;;;;26.40;43.60;;;;;;5049966;28;19921;-50
2020/12/10 07:17:16;;;;;;;;;;;26.30;43.60;;;;;;5055189;28;19909;-49
2020/12/10 07:19:42;;;;;;;;;;;26.40;43.60;;;;;;5054966;28;20003;-50
2020/12/10 07:22:07;;;;;;;;;;;26.40;43.50;;;;;;5049329;28;20333;-50
2020/12/10 07:24:33;;;;;;;;;;;26.40;43.50;;;;;;5037032;28;19917;-50
2020/12/10 07:26:58;;;;;;;;;;;26.40;43.60;;;;;;5035084;28;20355;-49
2020/12/10 07:29:24;;;;;;;;;;;26.40;43.60;;;;;;5034970;28;19916;-50
2020/12/10 07:31:49;;;;;;;;;;;26.40;43.50;;;;;;5034929;28;19924;-49
2020/12/10 07:34:15;;;;;;;;;;;26.30;43.50;;;;;;5079000;28;20380;-49
2020/12/10 07:36:44;;;;;;;;;;;26.30;43.50;;;;;;5054841;28;19920;-51
2020/12/10 07:39:10;;;;;;;;;;;26.40;43.50;;;;;;5054361;28;19913;-50
2020/12/10 07:41:36;;;;;;;;;;;26.40;43.40;;;;;;5052637;28;19924;-50
2020/12/10 07:44:01;;;;;;;;;;;26.40;43.40;;;;;;5054653;28;19913;-50
2020/12/10 07:46:28;;;;;;;;;;;26.40;43.40;;;;;;5054258;28;19913;-50
2020/12/10 07:48:54;;;;;;;;;;;26.30;43.40;;;;;;5086362;28;19968;-49
2020/12/10 07:51:20;;;;;;;;;;;26.40;43.40;;;;;;5053342;28;19923;-50
2020/12/10 07:53:45;;;;;;;;;;;26.40;43.30;;;;;;5054036;28;19938;-50
2020/12/10 07:56:13;;;;;;;;;;;26.40;43.20;;;;;;5052362;28;19963;-50
2020/12/10 07:58:50;;;;;;;;;;;26.40;43.30;;;;;;5052753;28;20020;-50
2020/12/10 08:01:16;;;;;;;;;;;26.40;43.30;;;;;;5053964;28;20420;-49
2020/12/10 08:03:48;;;;;;;;;;;26.40;43.30;;;;;;5086547;28;19916;-50
2020/12/10 08:06:13;;;;;;;;;;;26.40;43.40;;;;;;5070146;28;20370;-50
2020/12/10 08:08:43;;;;;;;;;;;26.40;43.20;;;;;;5034188;28;19932;-50
2020/12/10 08:11:10;;;;;;;;;;;26.40;43.30;;;;;;5065405;28;20336;-50
2020/12/10 08:13:35;;;;;;;;;;;26.30;43.30;;;;;;5041111;28;19913;-49
2020/12/10 08:16:07;;;;;;;;;;;26.30;43.30;;;;;;5053961;28;20008;-49
2020/12/10 08:18:33;;;;;;;;;;;26.30;43.30;;;;;;5053742;28;19987;-50
2020/12/10 08:20:59;;;;;;;;;;;26.30;43.20;;;;;;5053891;28;20385;-50
2020/12/10 08:23:25;;;;;;;;;;;26.30;43.20;;;;;;5053802;28;20018;-50
2020/12/10 08:26:07;;;;;;;;;;;26.40;43.20;;;;;;5053757;28;19909;-50
2020/12/10 08:28:33;;;;;;;;;;;26.40;43.20;;;;;;5044510;28;19913;-50
2020/12/10 08:30:58;;;;;;;;;;;26.30;43.20;;;;;;5033570;28;19913;-50
2020/12/10 08:33:32;;;;;;;;;;;26.30;43.30;;;;;;5033807;28;19909;-50
2020/12/10 08:35:57;;;;;;;;;;;26.30;43.30;;;;;;5033769;28;19924;-50
2020/12/10 08:38:23;;;;;;;;;;;26.30;43.20;;;;;;5033565;28;19913;-50
2020/12/10 08:40:53;;;;;;;;;;;26.30;43.20;;;;;;5033593;28;19909;-50
2020/12/10 08:43:19;;;;;;;;;;;26.30;43.20;;;;;;5037626;28;19920;-50
2020/12/10 08:45:44;;;;;;;;;;;26.30;43.80;;;;;;5036661;28;20003;-51
2020/12/10 08:48:11;;;;;;;;;;;26.40;43.10;;;;;;5053456;28;19909;-50
2020/12/10 08:50:36;;;;;;;;;;;26.40;43.10;;;;;;5053364;28;20025;-49
2020/12/10 08:53:03;;;;;;;;;;;26.40;43.00;;;;;;5053453;28;20351;-49
2020/12/10 08:55:29;;;;;;;;;;;26.30;43.10;;;;;;5053402;28;19948;-51
2020/12/10 08:57:56;;;;;;;;;;;26.30;43.10;;;;;;5081529;28;19913;-50
2020/12/10 09:00:21;;;;;;;;;;;26.30;43.10;;;;;;5034389;28;20007;-50
2020/12/10 09:02:47;;;;;;;;;;;26.30;43.10;;;;;;5033032;28;19959;-50
2020/12/10 09:05:12;;;;;;;;;;;26.30;43.20;;;;;;5033398;28;19967;-50
2020/12/10 09:07:38;;;;;;;;;;;26.30;43.10;;;;;;5032984;28;19916;-50
2020/12/10 09:10:06;;;;;;;;;;;26.30;43.10;;;;;;5032730;28;19913;-50
2020/12/10 09:12:33;;;;;;;;;;;26.30;43.10;;;;;;5032312;28;20150;-50
2020/12/10 09:14:59;;;;;;;;;;;26.40;43.10;;;;;;5035987;28;19945;-51
2020/12/10 09:17:26;;;;;;;;;;;26.30;43.00;;;;;;5052828;28;19935;-50
2020/12/10 09:19:51;;;;;;;;;;;26.30;43.00;;;;;;5053014;28;19909;-50
2020/12/10 09:22:17;;;;;;;;;;;26.30;43.00;;;;;;5052906;28;19908;-51
2020/12/10 09:24:42;;;;;;;;;;;26.30;43.00;;;;;;5053077;28;19919;-50
2020/12/10 09:27:08;;;;;;;;;;;26.40;43.00;;;;;;5052779;28;19920;-51
2020/12/10 09:29:34;;;;;;;;;;;26.40;42.90;;;;;;5051154;28;19943;-50
2020/12/10 09:32:05;;;;;;;;;;;26.40;43.00;;;;;;5032783;28;19971;-50
2020/12/10 09:34:31;;;;;;;;;;;26.30;43.00;;;;;;5032856;28;19909;-49
2020/12/10 09:36:59;;;;;;;;;;;26.30;43.00;;;;;;5033091;28;19909;-50
2020/12/10 09:39:25;;;;;;;;;;;26.30;43.00;;;;;;5032867;28;19933;-50
2020/12/10 09:41:50;;;;;;;;;;;26.30;42.90;;;;;;5033041;28;20370;-50
2020/12/10 09:44:15;;;;;;;;;;;26.30;42.90;;;;;;5033572;28;19931;-51
2020/12/10 09:46:41;;;;;;;;;;;26.30;43.00;;;;;;5052594;28;19917;-50
2020/12/10 09:49:07;;;;;;;;;;;26.30;43.00;;;;;;5052837;28;20000;-51
2020/12/10 09:52:06;;;;;;;;;;;26.40;42.80;;;;;;5052806;28;19916;-50
2020/12/10 09:59:28;;;;;;;;;;;26.40;42.80;;;;;;5047613;28;19913;-50
2020/12/10 10:01:54;;;;;;;;;;;26.30;42.80;;;;;;5032616;28;19917;-52
2020/12/10 10:04:19;;;;;;;;;;;26.30;42.80;;;;;;5032561;28;20326;-51
2020/12/10 10:06:46;;;;;;;;;;;26.30;42.90;;;;;;5032883;28;19991;-51
2020/12/10 10:09:12;;;;;;;;;;;26.30;42.80;;;;;;5048391;28;20269;-50
2020/12/10 10:11:37;;;;;;;;;;;26.30;42.80;;;;;;5052058;28;19921;-51
2020/12/10 10:14:03;;;;;;;;;;;26.30;42.90;;;;;;5053689;28;19917;-50
2020/12/10 10:16:28;;;;;;;;;;;26.30;42.90;;;;;;5048732;28;19979;-50
2020/12/10 10:18:54;;;;;;;;;;;26.30;42.90;;;;;;5036319;28;19999;-54
2020/12/10 10:21:19;;;;;;;;;;;26.40;42.80;;;;;;5035943;28;20409;-50
2020/12/10 10:23:45;;;;;;;;;;;26.30;42.80;;;;;;5036255;28;19931;-51
2020/12/10 10:26:10;;;;;;;;;;;26.30;42.80;;;;;;5035924;28;20014;-50
2020/12/10 10:28:36;;;;;;;;;;;26.30;42.80;;;;;;5036375;28;19987;-50
2020/12/10 10:31:01;;;;;;;;;;;26.30;42.80;;;;;;5041099;28;19917;-50
2020/12/10 10:33:27;;;;;;;;;;;26.30;42.80;;;;;;5046182;28;20286;-50
2020/12/10 10:35:53;;;;;;;;;;;26.30;42.80;;;;;;5036115;28;19916;-50
2020/12/10 10:38:22;;;;;;;;;;;26.30;42.80;;;;;;5035929;28;19910;-51
2020/12/10 10:40:47;;;;;;;;;;;26.30;42.80;;;;;;5035970;28;19940;-50
2020/12/10 10:43:13;;;;;;;;;;;26.40;42.70;;;;;;5035896;28;19914;-50
2020/12/10 10:45:38;;;;;;;;;;;26.30;42.70;;;;;;5035573;28;20334;-50
2020/12/10 10:48:04;;;;;;;;;;;26.40;42.70;;;;;;5043104;28;19909;-51
2020/12/10 10:50:29;;;;;;;;;;;26.40;42.70;;;;;;5055591;28;20394;-50
2020/12/10 10:52:54;;;;;;;;;;;26.40;42.50;;;;;;5055592;28;19962;-50
2020/12/10 10:55:20;;;;;;;;;;;26.40;42.50;;;;;;5055248;28;19909;-50
2020/12/10 10:57:45;;;;;;;;;;;26.30;42.50;;;;;;5055599;28;19909;-50
2020/12/10 11:00:11;;;;;;;;;;;26.40;42.60;;;;;;5054116;28;20278;-50
2020/12/10 11:02:36;;;;;;;;;;;26.30;42.60;;;;;;5052850;28;19913;-49
2020/12/10 11:05:02;;;;;;;;;;;26.30;42.60;;;;;;5055140;28;19995;-49
2020/12/10 11:07:27;;;;;;;;;;;26.30;42.60;;;;;;5055259;28;19955;-49
2020/12/10 11:09:53;;;;;;;;;;;26.30;42.70;;;;;;5036868;28;19979;-51
2020/12/10 11:12:18;;;;;;;;;;;26.30;42.70;;;;;;5034832;28;19921;-50
2020/12/10 11:14:44;;;;;;;;;;;26.20;42.70;;;;;;5066931;28;19910;-50
2020/12/10 11:17:10;;;;;;;;;;;26.30;42.70;;;;;;5041478;28;19924;-53
2020/12/10 11:19:35;;;;;;;;;;;26.30;42.60;;;;;;5054843;28;19938;-50
2020/12/10 11:22:01;;;;;;;;;;;26.30;42.60;;;;;;5054691;28;20408;-50
2020/12/10 11:24:26;;;;;;;;;;;26.30;42.60;;;;;;5053251;28;19908;-49
2020/12/10 11:26:52;;;;;;;;;;;26.30;42.60;;;;;;5087370;28;19955;-50
2020/12/10 11:29:18;;;;;;;;;;;26.30;42.60;;;;;;5054757;28;20362;-50
2020/12/10 11:31:43;;;;;;;;;;;26.30;42.60;;;;;;5051022;28;20366;-50
2020/12/10 11:34:09;;;;;;;;;;;26.20;42.70;;;;;;5054434;28;19909;-50
2020/12/10 11:36:34;;;;;;;;;;;26.30;42.60;;;;;;5034616;28;19913;-50
2020/12/10 11:38:59;;;;;;;;;;;26.30;42.60;;;;;;5034744;28;19995;-50
2020/12/10 11:41:25;;;;;;;;;;;26.30;42.60;;;;;;5034824;28;20259;-51
2020/12/10 11:43:51;;;;;;;;;;;26.30;42.50;;;;;;5034461;28;20000;-50
2020/12/10 11:46:16;;;;;;;;;;;26.30;42.50;;;;;;5034294;28;19956;-50
2020/12/10 11:48:42;;;;;;;;;;;26.30;42.50;;;;;;5034356;28;19955;-50
2020/12/10 11:51:07;;;;;;;;;;;26.30;42.50;;;;;;5035614;28;19933;-50
2020/12/10 11:53:34;;;;;;;;;;;26.40;42.50;;;;;;5034391;28;19963;-51
2020/12/10 11:56:00;;;;;;;;;;;26.40;42.40;;;;;;5034425;28;19915;-53
2020/12/10 11:58:25;;;;;;;;;;;26.40;42.40;;;;;;5034469;28;19909;-50
2020/12/10 12:00:51;;;;;;;;;;;26.30;42.40;;;;;;5034399;28;20003;-51
2020/12/10 12:03:16;;;;;;;;;;;26.30;42.50;;;;;;5034098;28;19955;-49
2020/12/10 12:05:42;;;;;;;;;;;26.30;42.50;;;;;;5050621;28;19913;-50
2020/12/10 12:08:07;;;;;;;;;;;26.30;42.50;;;;;;5053803;28;19909;-50
2020/12/10 12:10:33;;;;;;;;;;;26.30;42.50;;;;;;5053840;28;20129;-50
2020/12/10 12:12:58;;;;;;;;;;;26.30;42.40;;;;;;5050418;28;19913;-49
2020/12/10 12:15:24;;;;;;;;;;;26.40;42.40;;;;;;5054063;28;19944;-51
2020/12/10 12:17:49;;;;;;;;;;;26.40;42.40;;;;;;5053646;28;20421;-50
2020/12/10 12:20:15;;;;;;;;;;;26.30;42.40;;;;;;5053651;28;19909;-50
2020/12/10 12:22:40;;;;;;;;;;;26.30;42.40;;;;;;5034402;28;20376;-50
2020/12/10 12:25:06;;;;;;;;;;;26.40;42.40;;;;;;5034021;28;19913;-50
2020/12/10 12:27:32;;;;;;;;;;;26.30;42.50;;;;;;5033895;28;20334;-51
2020/12/10 12:29:57;;;;;;;;;;;26.30;42.50;;;;;;5052982;28;20287;-50
2020/12/10 12:32:23;;;;;;;;;;;26.30;42.50;;;;;;5053383;28;20310;-50
2020/12/10 12:34:48;;;;;;;;;;;26.30;42.40;;;;;;5053555;28;19963;-50
2020/12/10 12:37:14;;;;;;;;;;;26.30;42.40;;;;;;5053069;28;20363;-50
2020/12/10 12:39:39;;;;;;;;;;;26.40;42.40;;;;;;5053279;28;19913;-50
2020/12/10 12:42:05;;;;;;;;;;;26.30;42.30;;;;;;5053085;28;19916;-49
2020/12/10 12:44:31;;;;;;;;;;;26.30;42.40;;;;;;5038078;28;19913;-50
2020/12/10 12:46:56;;;;;;;;;;;26.30;42.40;;;;;;5045399;28;19940;-50
2020/12/10 12:49:21;;;;;;;;;;;26.30;42.30;;;;;;5053479;28;19913;-50
2020/12/10 12:51:53;;;;;;;;;;;26.30;42.30;;;;;;5053084;28;20024;-51
2020/12/10 12:54:19;;;;;;;;;;;26.30;42.30;;;;;;5053098;28;20286;-50
2020/12/10 12:56:45;;;;;;;;;;;26.40;42.20;;;;;;5053370;28;19908;-50
2020/12/10 12:59:10;;;;;;;;;;;26.40;42.20;;;;;;5053025;28;20432;-51
2020/12/10 13:01:36;;;;;;;;;;;26.30;42.30;;;;;;5041861;28;19920;-50
2020/12/10 13:04:02;;;;;;;;;;;26.30;42.40;;;;;;5033179;28;20478;-51
2020/12/10 13:06:27;;;;;;;;;;;26.30;42.40;;;;;;5033092;28;20050;-50
2020/12/10 13:08:53;;;;;;;;;;;26.30;42.40;;;;;;5033218;28;19952;-50
2020/12/10 13:11:19;;;;;;;;;;;26.30;42.30;;;;;;5032824;28;19921;-50
2020/12/10 13:13:45;;;;;;;;;;;26.30;42.30;;;;;;5046624;28;19928;-50
2020/12/10 13:16:10;;;;;;;;;;;26.40;42.20;;;;;;5052996;28;19908;-52
2020/12/10 13:18:36;;;;;;;;;;;26.30;42.20;;;;;;5051484;28;19987;-52
2020/12/10 13:21:01;;;;;;;;;;;26.30;42.30;;;;;;5052738;28;19909;-52
2020/12/10 13:23:27;;;;;;;;;;;26.20;42.30;;;;;;5052855;28;19909;-50
2020/12/10 13:25:52;;;;;;;;;;;26.30;42.40;;;;;;5053106;28;19912;-50
2020/12/10 13:28:18;;;;;;;;;;;26.30;42.30;;;;;;5052696;28;20374;-50
2020/12/10 13:30:44;;;;;;;;;;;26.30;42.30;;;;;;5052708;28;19913;-50
2020/12/10 13:33:12;;;;;;;;;;;26.30;42.30;;;;;;5050329;28;19912;-50
2020/12/10 13:35:38;;;;;;;;;;;26.30;42.20;;;;;;5032814;28;19919;-50
2020/12/10 13:38:04;;;;;;;;;;;26.40;42.20;;;;;;5032719;28;20318;-50
2020/12/10 13:40:29;;;;;;;;;;;26.30;42.20;;;;;;5033092;28;19909;-49
2020/12/10 13:42:55;;;;;;;;;;;26.30;42.40;;;;;;5032892;28;19909;-50
2020/12/10 13:45:20;;;;;;;;;;;26.30;42.40;;;;;;5032785;28;20455;-51
2020/12/10 13:47:45;;;;;;;;;;;26.30;42.50;;;;;;5033678;28;19909;-50
2020/12/10 13:50:11;;;;;;;;;;;26.20;42.50;;;;;;5055583;28;20390;-50
2020/12/10 13:52:36;;;;;;;;;;;26.30;42.40;;;;;;5056590;28;19924;-49
2020/12/10 13:55:05;;;;;;;;;;;26.30;42.30;;;;;;5056713;28;19915;-50
2020/12/10 13:57:31;;;;;;;;;;;26.30;42.40;;;;;;5056395;28;20263;-50
2020/12/10 13:59:56;;;;;;;;;;;26.30;42.40;;;;;;5056432;28;19962;-50
2020/12/10 14:02:22;;;;;;;;;;;26.20;42.40;;;;;;5055988;28;19967;-49
2020/12/10 14:04:47;;;;;;;;;;;26.30;42.50;;;;;;5042654;28;19971;-50
2020/12/10 14:07:12;;;;;;;;;;;26.30;42.40;;;;;;5036566;28;20692;-50
2020/12/10 14:09:38;;;;;;;;;;;26.30;42.40;;;;;;5036207;28;19967;-51
2020/12/10 14:12:03;;;;;;;;;;;26.30;42.40;;;;;;5036077;28;19964;-50
2020/12/10 14:14:29;;;;;;;;;;;26.30;42.40;;;;;;5036506;28;19909;-49
2020/12/10 14:16:55;;;;;;;;;;;26.30;42.40;;;;;;5036478;28;19992;-49